createdAt,value
2023-02-02T04:02:03.870Z,97.35
2023-02-02T04:05:13.450Z,97.53
2023-02-02T04:08:23.497Z,98.06
2023-02-02T04:11:33.212Z,96.20
2023-02-02T04:14:42.931Z,96.41
2023-02-02T04:17:53.707Z,94.48
2023-02-02T04:21:03.371Z,95.49
2023-02-02T04:24:14.167Z,93.87
2023-02-02T04:27:24.030Z,93.67
2023-02-02T04:30:33.686Z,94.26
2023-02-02T04:33:44.666Z,93.39
2023-02-02T04:36:54.213Z,93.13
2023-02-02T04:40:04.124Z,93.54
2023-02-02T04:43:14.248Z,94.82
2023-02-02T04:46:23.866Z,94.97
2023-02-02T04:49:34.738Z,96.47
2023-02-02T04:52:44.409Z,98.54
2023-02-02T04:55:53.989Z,99.86
2023-02-02T04:59:03.614Z,100.00
2023-02-02T05:02:13.190Z,100.00
2023-02-02T05:05:24.450Z,100.00
2023-02-02T05:08:34.711Z,100.00
2023-02-02T05:11:45.003Z,100.00
2023-02-02T05:14:54.623Z,100.00
2023-02-02T05:18:04.402Z,100.00
2023-02-02T05:21:15.303Z,100.00
2023-02-02T05:24:24.959Z,100.00
2023-02-02T05:27:35.069Z,100.00
2023-02-02T05:30:44.806Z,100.00
2023-02-02T05:33:54.335Z,100.00
2023-02-02T05:37:05.306Z,100.00
2023-02-02T05:40:15.180Z,100.00
2023-02-02T05:43:26.796Z,100.00
2023-02-02T05:46:36.326Z,100.00
2023-02-02T05:49:45.926Z,100.00
2023-02-02T05:52:56.896Z,100.00
2023-02-02T05:56:06.833Z,100.00
2023-02-02T05:59:17.330Z,100.00
2023-02-02T07:46:52.229Z,97.94
2023-02-02T07:50:01.849Z,97.66
2023-02-02T07:53:11.664Z,97.22
2023-02-02T07:56:23.727Z,96.66
2023-02-02T07:59:33.627Z,96.32
2023-02-02T08:02:44.551Z,97.31
2023-02-02T08:05:59.823Z,97.81
2023-02-02T08:09:11.994Z,97.39
2023-02-02T08:12:24.814Z,96.52
2023-02-02T08:15:35.706Z,95.52
2023-02-02T08:18:46.945Z,95.19
2023-02-02T08:21:56.504Z,93.74
2023-02-02T08:25:06.713Z,93.63
2023-02-02T08:28:16.325Z,92.73
2023-02-02T08:31:29.260Z,91.78
2023-02-02T08:34:40.826Z,90.50
2023-02-02T08:37:50.559Z,89.93
2023-02-02T08:41:05.587Z,88.59
2023-02-02T08:44:18.690Z,88.57
2023-02-02T08:47:30.077Z,88.17
2023-02-02T08:50:41.349Z,87.24
2023-02-02T08:53:50.914Z,87.61
2023-02-02T08:57:00.624Z,86.49
2023-02-02T09:00:11.683Z,85.56
2023-02-02T09:03:21.386Z,84.30
2023-02-02T09:06:40.266Z,83.41
2023-02-02T09:09:58.201Z,84.54
2023-02-02T09:13:07.758Z,84.59
2023-02-02T09:16:20.089Z,84.68
2023-02-02T09:19:31.267Z,84.47
2023-02-02T09:22:42.828Z,83.18
2023-02-02T09:25:55.184Z,83.35
2023-02-02T09:29:07.087Z,82.47
2023-02-02T09:32:16.662Z,81.90
2023-02-02T09:35:26.726Z,82.32
2023-02-02T09:38:38.410Z,83.01
2023-02-02T09:42:03.694Z,81.55
2023-02-02T09:45:23.456Z,83.22
2023-02-02T09:48:42.537Z,83.61
2023-02-02T09:51:56.998Z,83.69
2023-02-02T09:55:16.312Z,83.03
2023-02-02T09:58:30.195Z,83.11
2023-02-02T10:01:45.193Z,84.31
2023-02-02T10:05:02.675Z,84.03
2023-02-02T10:08:33.898Z,82.85
2023-02-02T10:11:51.561Z,83.27
2023-02-02T10:15:06.390Z,82.22
2023-02-02T10:18:21.857Z,80.88
2023-02-02T10:21:40.281Z,80.33
2023-02-02T10:24:49.949Z,78.40
2023-02-02T10:28:18.569Z,78.92
2023-02-02T10:31:42.523Z,79.60
2023-02-02T10:35:13.504Z,79.55
2023-02-02T10:38:37.560Z,79.08
2023-02-02T10:41:59.683Z,78.37
2023-02-02T10:45:17.010Z,79.13
2023-02-02T10:48:32.658Z,78.66
2023-02-02T10:51:46.859Z,77.38
2023-02-02T10:55:05.032Z,78.52
2023-02-02T10:58:25.360Z,77.72
2023-02-02T11:01:36.479Z,76.70
2023-02-02T11:04:57.847Z,77.58
2023-02-02T11:08:16.955Z,77.78
2023-02-02T11:11:31.835Z,78.32
2023-02-02T11:14:46.352Z,76.63
2023-02-02T11:17:57.466Z,77.32
2023-02-02T11:21:19.627Z,78.16
2023-02-02T11:24:31.022Z,77.77
2023-02-02T11:27:43.162Z,77.07
2023-02-02T11:30:54.372Z,75.95
2023-02-02T11:34:20.493Z,76.66
2023-02-02T11:37:32.982Z,76.52
2023-02-02T11:40:45.093Z,76.58
2023-02-02T11:43:56.712Z,76.38
2023-02-02T11:47:06.853Z,75.50
2023-02-02T11:50:24.181Z,74.70
2023-02-02T11:53:36.768Z,72.97
2023-02-02T11:56:51.068Z,72.05
2023-02-02T12:00:16.971Z,72.58
2023-02-02T12:03:32.009Z,72.63
2023-02-02T12:06:43.017Z,72.76
2023-02-02T12:09:53.156Z,73.45
2023-02-02T12:16:32.630Z,72.78
2023-02-02T12:19:56.340Z,72.66
2023-02-02T12:23:24.213Z,72.12
2023-02-02T12:26:36.921Z,72.62
2023-02-02T12:30:03.465Z,72.77
2023-02-02T12:33:24.296Z,72.86
2023-02-02T12:36:48.445Z,70.80
2023-02-02T12:40:18.333Z,71.73
2023-02-02T12:43:38.737Z,71.97
2023-02-02T12:47:00.943Z,73.44
2023-02-02T12:50:23.957Z,71.69
2023-02-02T12:53:43.192Z,71.62
2023-02-02T12:57:03.255Z,71.09
2023-02-02T13:00:28.272Z,71.76
2023-02-02T13:03:51.029Z,74.15
2023-02-02T13:10:48.155Z,73.99
2023-02-02T13:14:03.727Z,73.86
2023-02-02T13:17:18.279Z,74.16
2023-02-02T13:20:37.865Z,73.56
2023-02-02T13:23:51.879Z,75.30
2023-02-02T13:27:05.811Z,75.00
2023-02-02T13:30:28.796Z,76.13
2023-02-02T13:33:39.868Z,76.68
2023-02-02T13:36:55.492Z,75.61
2023-02-02T13:40:16.925Z,76.47
2023-02-02T13:43:35.421Z,76.13
2023-02-02T13:46:53.747Z,75.47
2023-02-02T13:50:12.117Z,75.63
2023-02-02T13:53:42.047Z,75.70
2023-02-02T13:56:59.323Z,76.55
2023-02-02T14:00:16.583Z,78.05
2023-02-02T14:03:38.184Z,77.97
2023-02-02T14:06:56.966Z,78.36
2023-02-02T14:10:08.168Z,78.38
2023-02-02T14:13:33.013Z,77.69
2023-02-02T14:16:47.575Z,78.60
2023-02-02T14:19:59.854Z,79.35
2023-02-02T14:23:39.178Z,78.21
2023-02-02T14:26:51.327Z,78.97
2023-02-02T14:30:01.708Z,79.26
2023-02-02T14:33:26.218Z,79.55
2023-02-02T14:36:39.894Z,80.26
2023-02-02T14:39:57.687Z,80.27
2023-02-02T14:43:29.716Z,80.74
2023-02-02T14:46:40.928Z,81.90
2023-02-02T14:49:51.333Z,81.46
2023-02-02T14:53:06.198Z,81.19
2023-02-02T14:56:17.487Z,80.47
2023-02-02T14:59:31.891Z,80.56
2023-02-02T15:02:41.603Z,80.57
2023-02-02T15:06:03.731Z,80.73
2023-02-02T15:09:29.175Z,80.44
2023-02-02T15:12:45.668Z,81.02
2023-02-02T15:16:07.484Z,80.03
2023-02-02T15:19:25.838Z,80.26
2023-02-02T15:22:42.345Z,80.08
2023-02-02T15:25:58.634Z,79.95
2023-02-02T15:29:17.194Z,79.49
2023-02-02T15:32:28.344Z,80.45
2023-02-02T15:35:38.369Z,79.47
2023-02-02T15:38:50.742Z,79.74
2023-02-02T15:42:17.053Z,78.89
2023-02-02T15:45:33.324Z,79.12
2023-02-02T15:48:43.881Z,79.99
2023-02-02T15:51:55.844Z,79.55
2023-02-02T15:55:21.040Z,79.80
2023-02-02T15:58:34.312Z,79.68
2023-02-02T16:01:48.376Z,79.30
2023-02-02T16:04:58.178Z,80.06
2023-02-02T16:08:13.822Z,80.37
2023-02-02T16:11:24.874Z,81.82
2023-02-02T16:14:40.370Z,81.54
2023-02-02T16:18:00.171Z,81.30
2023-02-02T16:21:17.878Z,81.87
2023-02-02T16:24:31.533Z,82.26
2023-02-02T16:27:48.593Z,82.30
2023-02-02T16:31:02.566Z,82.88
2023-02-02T16:34:16.976Z,82.39
2023-02-02T16:37:32.627Z,82.59
2023-02-02T16:40:43.022Z,82.43
2023-02-02T16:43:53.293Z,82.45
2023-02-02T16:47:06.858Z,82.18
2023-02-02T16:50:29.934Z,82.88
2023-02-02T16:53:39.874Z,83.31
2023-02-02T16:56:52.942Z,83.67
2023-02-02T17:00:06.908Z,84.32
2023-02-02T17:03:19.056Z,85.56
2023-02-02T17:06:41.637Z,86.18
2023-02-02T17:10:15.028Z,87.17
2023-02-02T17:13:40.118Z,87.79
2023-02-02T17:16:49.847Z,88.19
2023-02-02T17:20:03.133Z,87.85
2023-02-02T17:23:19.038Z,88.35
2023-02-02T17:26:29.001Z,88.33
2023-02-02T17:29:38.763Z,88.27
2023-02-02T17:32:48.759Z,88.02
2023-02-02T17:36:00.246Z,89.43
2023-02-02T17:39:11.693Z,88.79
2023-02-02T17:42:25.500Z,88.92
2023-02-02T17:45:38.444Z,89.73
2023-02-02T17:48:48.055Z,90.65
2023-02-02T17:51:58.956Z,90.59
2023-02-02T17:55:14.865Z,90.54
2023-02-02T17:58:24.547Z,91.48
2023-02-02T18:01:37.638Z,91.19
2023-02-02T18:04:48.753Z,91.35
2023-02-02T18:07:59.585Z,91.15
2023-02-02T18:11:13.511Z,90.59
2023-02-02T18:14:23.117Z,91.11
2023-02-02T18:17:34.152Z,91.44
2023-02-02T18:20:44.267Z,91.54
2023-02-02T18:23:55.122Z,92.32
2023-02-02T18:27:04.951Z,92.30
2023-02-02T18:30:15.362Z,93.19
2023-02-02T18:33:28.196Z,92.91
2023-02-02T18:36:40.250Z,93.49
2023-02-02T18:39:51.839Z,93.77
2023-02-02T18:43:01.461Z,94.76
2023-02-02T18:46:13.770Z,94.75
2023-02-02T18:49:24.088Z,95.37
2023-02-02T18:52:33.859Z,94.81
2023-02-02T18:55:44.867Z,94.56
2023-02-02T18:58:54.761Z,95.33
2023-02-02T19:02:04.390Z,95.26
2023-02-02T19:05:25.828Z,94.61
2023-02-02T19:08:35.863Z,95.00
2023-02-02T19:11:49.176Z,95.00
2023-02-02T19:14:58.725Z,95.29
2023-02-02T19:18:14.612Z,94.47
2023-02-02T19:21:24.352Z,94.28
2023-02-02T19:24:38.391Z,94.62
2023-02-02T19:27:49.262Z,94.01
2023-02-02T19:31:00.964Z,94.97
2023-02-02T19:34:13.585Z,95.83
2023-02-02T19:37:25.624Z,95.25
2023-02-02T19:40:35.381Z,94.62
2023-02-02T19:43:47.739Z,94.83
2023-02-02T19:46:57.991Z,95.18
2023-02-02T19:50:16.287Z,94.31
2023-02-02T19:53:28.736Z,94.14
2023-02-02T19:56:40.228Z,94.25
2023-02-02T19:59:53.329Z,95.23
2023-02-02T20:03:07.595Z,95.38
2023-02-02T20:06:23.304Z,94.65
2023-02-02T20:09:35.617Z,95.20
2023-02-02T20:12:45.670Z,95.90
2023-02-02T20:16:03.593Z,96.04
2023-02-02T20:19:17.688Z,95.72
2023-02-02T20:22:30.264Z,96.22
2023-02-02T20:25:39.855Z,95.98
2023-02-02T20:28:51.067Z,96.25
2023-02-02T20:32:06.091Z,96.96
2023-02-02T20:35:24.831Z,97.46
2023-02-02T20:38:39.083Z,97.75
2023-02-02T20:41:48.946Z,98.57
